Time;durP1;ratioP1;P1;durP2;ratioP2;P2;SDS_P1;SDS_P2;PMS_P1;PMS_P2;Temp;Humidity;BMP_temperature;BMP_pressure;BME280_temperature;BME280_humidity;BME280_pressure;Samples;Min_cycle;Max_cycle;Signal;HPM_P1;HPM_P2
2023/10/26 00:02:15;;;;;;;1999.90;999.90;;;;;;;13.77;74.79;95631.94;5136326;27;20071;-63
2023/10/26 00:04:42;;;;;;;1999.90;999.90;;;;;;;13.80;74.92;95632.66;5136241;27;20416;-64
2023/10/26 00:07:09;;;;;;;1999.90;999.90;;;;;;;13.74;74.52;95628.66;5136148;27;20472;-63
2023/10/26 00:09:36;;;;;;;1999.90;999.90;;;;;;;13.50;75.31;95619.66;5136412;27;20115;-63
2023/10/26 00:12:05;;;;;;;1999.90;999.90;;;;;;;13.44;76.20;95624.41;5136436;27;20047;-62
2023/10/26 00:14:33;;;;;;;1999.90;999.90;;;;;;;13.44;76.32;95630.53;5136108;27;20043;-62
2023/10/26 00:17:00;;;;;;;1999.90;999.90;;;;;;;13.46;76.37;95635.69;5136309;27;20085;-63
2023/10/26 00:19:27;;;;;;;1999.90;999.90;;;;;;;13.39;76.24;95643.09;5136011;27;20070;-63
2023/10/26 00:21:54;;;;;;;1999.90;999.90;;;;;;;13.33;76.69;95640.88;5136037;27;20043;-64
2023/10/26 00:24:21;;;;;;;1999.90;999.90;;;;;;;13.29;77.63;95629.72;5135646;27;20146;-62
2023/10/26 00:26:48;;;;;;;1999.90;999.90;;;;;;;13.34;77.86;95625.00;5136255;27;20076;-63
2023/10/26 00:29:16;;;;;;;1999.90;999.90;;;;;;;13.28;77.65;95607.03;5135889;27;20450;-63
2023/10/26 00:31:43;;;;;;;1999.90;999.90;;;;;;;13.27;78.19;95605.31;5135693;27;20127;-63
2023/10/26 00:34:10;;;;;;;1999.90;999.90;;;;;;;13.24;78.44;95603.75;5135461;27;20408;-64
2023/10/26 00:36:37;;;;;;;1999.90;999.90;;;;;;;13.23;78.81;95604.69;5135782;27;20134;-63
2023/10/26 00:39:04;;;;;;;1999.90;999.90;;;;;;;13.26;78.61;95593.16;5135858;27;20129;-63
2023/10/26 00:41:32;;;;;;;1999.90;999.90;;;;;;;13.25;79.10;95599.34;5135730;27;20043;-62
2023/10/26 00:43:59;;;;;;;1999.90;999.90;;;;;;;13.23;78.98;95604.69;5135436;27;20142;-62
2023/10/26 00:46:27;;;;;;;1999.90;999.90;;;;;;;13.25;79.36;95604.59;5135557;27;20085;-64
2023/10/26 00:48:54;;;;;;;1999.90;999.90;;;;;;;13.28;79.96;95607.03;5135526;27;20479;-63
2023/10/26 00:51:22;;;;;;;1999.90;999.90;;;;;;;13.23;80.15;95602.06;5135499;27;20444;-63
2023/10/26 00:53:49;;;;;;;1999.90;999.90;;;;;;;13.22;79.98;95610.03;5135317;27;20051;-62
2023/10/26 00:56:20;;;;;;;1999.90;999.90;;;;;;;13.25;79.67;95604.59;5135204;27;20568;-64
2023/10/26 00:58:48;;;;;;;1999.90;999.90;;;;;;;13.24;80.73;95601.13;5135524;27;20049;-63
2023/10/26 01:01:17;;;;;;;1999.90;999.90;;;;;;;13.26;80.11;95587.91;5135198;27;20125;-62
2023/10/26 01:03:47;;;;;;;1999.90;999.90;;;;;;;13.24;79.89;95588.00;5135183;27;20100;-63
2023/10/26 01:06:14;;;;;;;1999.90;999.90;;;;;;;13.13;79.49;95582.59;5135123;27;20054;-63
2023/10/26 01:08:41;;;;;;;1999.90;999.90;;;;;;;13.06;80.41;95586.56;5135049;27;20446;-63
2023/10/26 01:11:08;;;;;;;1999.90;999.90;;;;;;;13.07;80.43;95588.22;5134727;27;20477;-63
2023/10/26 01:13:36;;;;;;;1999.90;999.90;;;;;;;13.05;79.83;95596.19;5135238;27;20142;-62
2023/10/26 01:16:04;;;;;;;1999.90;999.90;;;;;;;13.08;79.34;95595.16;5134953;27;20051;-62
2023/10/26 01:18:31;;;;;;;1999.90;999.90;;;;;;;13.01;79.60;95586.84;5134999;27;20047;-64
2023/10/26 01:21:00;;;;;;;1999.90;999.90;;;;;;;12.96;81.81;95589.75;5135070;27;20116;-62
2023/10/26 01:23:28;;;;;;;1999.90;999.90;;;;;;;12.84;85.04;95582.63;5134715;27;20046;-63
2023/10/26 01:25:59;;;;;;;1999.90;999.90;;;;;;;12.85;84.65;95590.41;5134806;27;20446;-63
2023/10/26 01:28:26;;;;;;;1999.90;999.90;;;;;;;12.88;83.62;95599.88;5134845;27;20047;-63
2023/10/26 01:30:53;;;;;;;1999.90;999.90;;;;;;;12.94;82.61;95602.13;5134771;27;20477;-64
2023/10/26 01:33:20;;;;;;;1999.90;999.90;;;;;;;12.93;81.91;95599.59;5134559;27;20047;-62
2023/10/26 01:35:48;;;;;;;1999.90;999.90;;;;;;;12.91;81.31;95596.22;5134514;27;20141;-63
2023/10/26 01:38:15;;;;;;;1999.90;999.90;;;;;;;12.86;81.87;95591.25;5134669;27;20051;-62
2023/10/26 01:40:43;;;;;;;1999.90;999.90;;;;;;;12.79;84.61;95582.91;5134665;27;20100;-63
2023/10/26 01:43:10;;;;;;;1999.90;999.90;;;;;;;12.73;85.47;95581.53;5134480;27;20053;-63
2023/10/26 01:45:37;;;;;;;1999.90;999.90;;;;;;;12.71;86.03;95587.81;5134319;27;20054;-63
2023/10/26 01:48:05;;;;;;;1999.90;999.90;;;;;;;12.72;84.94;95592.97;5134429;27;20047;-63
2023/10/26 01:50:32;;;;;;;1999.90;999.90;;;;;;;12.75;84.29;95594.53;5134354;27;20103;-63
2023/10/26 01:52:59;;;;;;;1999.90;999.90;;;;;;;12.70;84.05;95601.88;5134160;27;20043;-63
2023/10/26 01:55:27;;;;;;;1999.90;999.90;;;;;;;12.67;83.82;95592.38;5134210;27;20043;-63
2023/10/26 01:57:55;;;;;;;1999.90;999.90;;;;;;;12.71;84.16;95598.31;5134301;27;20046;-62
2023/10/26 02:00:22;;;;;;;1999.90;999.90;;;;;;;12.61;83.68;95601.47;5134164;27;20078;-62
2023/10/26 02:02:49;;;;;;;1999.90;999.90;;;;;;;12.63;83.84;95622.38;5134228;27;20071;-63
2023/10/26 02:05:16;;;;;;;1999.90;999.90;;;;;;;12.64;83.44;95614.41;5134137;27;20054;-63
2023/10/26 02:07:43;;;;;;;1999.90;999.90;;;;;;;12.64;83.10;95624.91;5134199;27;20051;-63
2023/10/26 02:10:15;;;;;;;1999.90;999.90;;;;;;;12.64;82.66;95616.19;5134253;27;20040;-63
2023/10/26 02:12:42;;;;;;;1999.90;999.90;;;;;;;12.66;82.14;95614.31;5134009;27;20051;-63
2023/10/26 02:15:12;;;;;;;1999.90;999.90;;;;;;;12.63;81.96;95619.75;5134120;27;20126;-63
2023/10/26 02:17:39;;;;;;;1999.90;999.90;;;;;;;12.55;82.16;95604.47;5134033;27;20054;-62
2023/10/26 02:20:07;;;;;;;1999.90;999.90;;;;;;;12.49;82.39;95599.59;5134054;28;20134;-63
2023/10/26 02:22:34;;;;;;;1999.90;999.90;;;;;;;12.49;82.04;95597.84;5135122;27;20043;-63
2023/10/26 02:25:01;;;;;;;1999.90;999.90;;;;;;;12.48;83.57;95595.31;5138235;27;20061;-62
2023/10/26 02:27:28;;;;;;;1999.90;999.90;;;;;;;12.52;85.50;95586.31;5138196;27;20079;-64
2023/10/26 02:29:55;;;;;;;1999.90;999.90;;;;;;;12.53;85.42;95589.78;5138104;27;20502;-62
2023/10/26 02:32:24;;;;;;;1999.90;999.90;;;;;;;12.55;85.11;95595.78;5138131;27;20050;-63
2023/10/26 02:34:51;;;;;;;1999.90;999.90;;;;;;;12.60;86.36;95599.81;5138146;27;20039;-62
2023/10/26 02:37:19;;;;;;;1999.90;999.90;;;;;;;12.62;85.80;95602.34;5138276;27;20480;-63
2023/10/26 02:39:47;;;;;;;1999.90;999.90;;;;;;;12.67;85.26;95600.25;5138016;27;20138;-63
2023/10/26 02:42:14;;;;;;;1999.90;999.90;;;;;;;12.70;84.58;95615.81;5138056;27;20078;-63
2023/10/26 02:44:41;;;;;;;1999.90;999.90;;;;;;;12.77;84.56;95611.06;5138005;27;20137;-64
2023/10/26 02:47:08;;;;;;;1999.90;999.90;;;;;;;12.75;84.58;95602.41;5137812;27;20043;-62
2023/10/26 02:49:36;;;;;;;1999.90;999.90;;;;;;;12.76;85.07;95598.84;5137672;27;20134;-64
2023/10/26 02:52:03;;;;;;;1999.90;999.90;;;;;;;12.77;84.06;95593.50;5137770;27;20130;-63
2023/10/26 02:54:30;;;;;;;1999.90;999.90;;;;;;;12.75;83.65;95584.91;5137729;27;20047;-63
2023/10/26 02:56:57;;;;;;;1999.90;999.90;;;;;;;12.72;83.77;95587.72;5137541;27;20047;-64
2023/10/26 02:59:24;;;;;;;1999.90;999.90;;;;;;;12.71;83.70;95590.44;5137599;27;20064;-62
2023/10/26 03:01:51;;;;;;;1999.90;999.90;;;;;;;12.70;83.71;95581.72;5137771;27;20464;-63
2023/10/26 03:04:18;;;;;;;1999.90;999.90;;;;;;;12.64;84.06;95585.56;5137513;27;20051;-63
2023/10/26 03:06:46;;;;;;;1999.90;999.90;;;;;;;12.60;84.55;95591.94;5137502;27;20051;-64
2023/10/26 03:09:14;;;;;;;1999.90;999.90;;;;;;;12.62;84.69;95595.28;5137421;27;20047;-64
2023/10/26 03:11:41;;;;;;;1999.90;999.90;;;;;;;12.63;84.79;95593.53;5137493;27;20096;-63
2023/10/26 03:14:08;;;;;;;1999.90;999.90;;;;;;;12.62;85.04;95590.03;5137401;27;20133;-63
2023/10/26 03:16:35;;;;;;;1999.90;999.90;;;;;;;12.54;86.54;95592.31;5137319;27;20496;-63
2023/10/26 03:19:03;;;;;;;1999.90;999.90;;;;;;;12.58;86.51;95592.97;5137136;27;20047;-63
2023/10/26 03:21:30;;;;;;;1999.90;999.90;;;;;;;12.48;86.19;95583.03;5137163;27;20049;-63
2023/10/26 03:23:59;;;;;;;1999.90;999.90;;;;;;;12.51;86.70;95589.88;5137255;27;20130;-64
2023/10/26 03:26:26;;;;;;;1999.90;999.90;;;;;;;12.52;87.00;95583.69;5137078;27;20127;-62
2023/10/26 03:28:53;;;;;;;1999.90;999.90;;;;;;;12.50;86.82;95585.56;5136981;27;20082;-63
2023/10/26 03:31:20;;;;;;;1999.90;999.90;;;;;;;12.50;86.47;95572.47;5137002;27;20081;-63
2023/10/26 03:33:47;;;;;;;1999.90;999.90;;;;;;;12.54;86.10;95570.47;5136482;27;20054;-64
2023/10/26 03:36:15;;;;;;;1999.90;999.90;;;;;;;12.55;85.43;95577.44;5136928;27;20039;-62
2023/10/26 03:38:42;;;;;;;1999.90;999.90;;;;;;;12.55;84.49;95585.28;5136929;27;20065;-63
2023/10/26 03:41:11;;;;;;;1999.90;999.90;;;;;;;12.57;84.36;95591.28;5136880;27;20055;-63
2023/10/26 03:43:39;;;;;;;1999.90;999.90;;;;;;;12.55;83.84;95577.44;5136758;27;20061;-64
2023/10/26 03:46:06;;;;;;;1999.90;999.90;;;;;;;12.52;83.83;95578.44;5136630;27;20051;-64
2023/10/26 03:48:35;;;;;;;1999.90;999.90;;;;;;;12.51;83.87;95577.59;5136676;27;20092;-63
2023/10/26 03:51:06;;;;;;;1999.90;999.90;;;;;;;12.51;84.02;95568.88;5136557;27;20130;-63
2023/10/26 03:53:33;;;;;;;1999.90;999.90;;;;;;;12.51;84.54;95569.75;5136832;27;20050;-62
2023/10/26 03:56:01;;;;;;;1999.90;999.90;;;;;;;12.51;84.22;95567.13;5136625;27;20124;-63
2023/10/26 03:58:29;;;;;;;1999.90;999.90;;;;;;;12.45;83.83;95564.88;5136861;27;20047;-63
2023/10/26 04:00:57;;;;;;;1999.90;999.90;;;;;;;12.40;84.55;95556.41;5136631;27;20100;-62
2023/10/26 04:03:25;;;;;;;1999.90;999.90;;;;;;;12.45;85.13;95557.00;5136493;27;20051;-62
2023/10/26 04:05:52;;;;;;;1999.90;999.90;;;;;;;12.44;85.09;95560.56;5136276;27;20047;-62
2023/10/26 04:08:19;;;;;;;1999.90;999.90;;;;;;;12.43;85.27;95561.47;5136355;27;20126;-64
2023/10/26 04:10:46;;;;;;;1999.90;999.90;;;;;;;12.44;85.57;95554.47;5136438;27;20127;-63
2023/10/26 04:13:13;;;;;;;1999.90;999.90;;;;;;;12.46;85.67;95556.06;5136277;27;20081;-63
2023/10/26 04:15:42;;;;;;;1999.90;999.90;;;;;;;12.49;85.84;95562.88;5136302;27;20039;-63
2023/10/26 04:18:09;;;;;;;1999.90;999.90;;;;;;;12.50;86.06;95564.59;5136090;27;20047;-63
2023/10/26 04:20:36;;;;;;;1999.90;999.90;;;;;;;12.50;86.15;95573.28;5135958;27;20076;-62
2023/10/26 04:23:04;;;;;;;1999.90;999.90;;;;;;;12.51;85.55;95576.75;5136098;27;20432;-62
2023/10/26 04:25:31;;;;;;;1999.90;999.90;;;;;;;12.45;85.34;95572.72;5136078;27;20078;-64
2023/10/26 04:27:58;;;;;;;1999.90;999.90;;;;;;;12.49;86.52;95571.59;5136009;27;20055;-63
2023/10/26 04:30:25;;;;;;;1999.90;999.90;;;;;;;12.53;87.85;95574.03;5136217;27;20047;-63
2023/10/26 04:32:54;;;;;;;1999.90;999.90;;;;;;;12.51;87.92;95569.75;5135477;27;20408;-64
2023/10/26 04:35:21;;;;;;;1999.90;999.90;;;;;;;12.48;87.34;95564.69;5135841;27;20040;-64
2023/10/26 04:37:48;;;;;;;1999.90;999.90;;;;;;;12.46;89.73;95560.47;5135665;27;20055;-63
2023/10/26 04:40:15;;;;;;;1999.90;999.90;;;;;;;12.46;92.28;95569.16;5135631;27;20092;-63
2023/10/26 04:42:42;;;;;;;1999.90;999.90;;;;;;;12.53;93.92;95561.78;5135607;27;20051;-63
2023/10/26 04:45:10;;;;;;;1999.90;999.90;;;;;;;12.61;95.01;95561.28;5134652;27;20076;-63
2023/10/26 04:47:37;;;;;;;1999.90;999.90;;;;;;;12.70;95.53;95557.28;5135531;27;20047;-63
2023/10/26 04:50:07;;;;;;;1999.90;999.90;;;;;;;12.76;93.21;95549.84;5135655;27;20047;-63
2023/10/26 04:52:35;;;;;;;1999.90;999.90;;;;;;;12.76;92.79;95555.09;5135454;27;20051;-63
2023/10/26 04:55:02;;;;;;;1999.90;999.90;;;;;;;12.80;92.23;95557.53;5135421;27;20050;-63
2023/10/26 04:57:29;;;;;;;1999.90;999.90;;;;;;;12.83;91.97;95554.72;5135263;27;20085;-63
2023/10/26 04:59:56;;;;;;;1999.90;999.90;;;;;;;12.90;92.46;95556.00;5135253;27;20054;-63
2023/10/26 05:02:23;;;;;;;1999.90;999.90;;;;;;;12.91;91.10;95568.19;5135217;27;20039;-62
2023/10/26 05:04:50;;;;;;;1999.90;999.90;;;;;;;12.96;91.34;95581.88;5135281;27;20446;-62
2023/10/26 05:07:19;;;;;;;1999.90;999.90;;;;;;;12.99;90.78;95586.94;5135311;27;20436;-63
2023/10/26 05:09:46;;;;;;;1999.90;999.90;;;;;;;13.03;90.31;95590.19;5135176;27;20043;-64
2023/10/26 05:12:13;;;;;;;1999.90;999.90;;;;;;;13.04;90.15;95584.03;5135079;27;20050;-63
2023/10/26 05:14:40;;;;;;;1999.90;999.90;;;;;;;13.07;89.69;95591.69;5135082;27;20404;-63
2023/10/26 05:17:07;;;;;;;1999.90;999.90;;;;;;;13.07;89.58;95596.09;5135119;27;20043;-62
2023/10/26 05:19:34;;;;;;;1999.90;999.90;;;;;;;13.09;89.78;95594.19;5135132;27;20043;-63
2023/10/26 05:22:01;;;;;;;1999.90;999.90;;;;;;;13.15;89.07;95593.81;5134877;27;20051;-63
2023/10/26 05:24:30;;;;;;;1999.90;999.90;;;;;;;13.19;88.36;95589.22;5134888;27;20164;-64
2023/10/26 05:26:57;;;;;;;1999.90;999.90;;;;;;;13.18;88.75;95580.50;5134824;27;20149;-63
2023/10/26 05:29:24;;;;;;;1999.90;999.90;;;;;;;13.19;90.68;95590.09;5134975;27;20043;-64
2023/10/26 05:31:52;;;;;;;1999.90;999.90;;;;;;;13.24;91.57;95602.88;5134661;27;20416;-62
2023/10/26 05:34:19;;;;;;;1999.90;999.90;;;;;;;13.25;91.64;95609.84;5134491;27;20085;-62
2023/10/26 05:36:46;;;;;;;1999.90;999.90;;;;;;;13.34;91.74;95605.78;5134699;27;20047;-63
2023/10/26 05:39:15;;;;;;;1999.90;999.90;;;;;;;13.48;91.54;95597.00;5134719;27;20053;-63
2023/10/26 05:41:44;;;;;;;1999.90;999.90;;;;;;;13.62;91.08;95594.38;5134522;27;20043;-64
2023/10/26 05:44:11;;;;;;;1999.90;999.90;;;;;;;13.75;89.85;95591.78;5134529;27;20043;-63
2023/10/26 05:46:37;;;;;;;1999.90;999.90;;;;;;;13.75;88.01;95593.53;5134452;27;20447;-62
2023/10/26 05:49:05;;;;;;;1999.90;999.90;;;;;;;13.80;87.39;95591.47;5134359;27;20122;-64
2023/10/26 05:51:32;;;;;;;1999.90;999.90;;;;;;;13.91;87.51;95585.50;5134510;27;20454;-64
2023/10/26 05:54:00;;;;;;;1999.90;999.90;;;;;;;14.27;87.37;95591.03;5134565;27;20408;-62
2023/10/26 05:56:27;;;;;;;1999.90;999.90;;;;;;;14.76;84.34;95589.41;5134378;27;20039;-63
2023/10/26 05:58:56;;;;;;;1999.90;999.90;;;;;;;15.01;83.52;95592.13;5134224;27;20126;-62
2023/10/26 06:01:23;;;;;;;1999.90;999.90;;;;;;;15.12;82.15;95607.16;5134267;27;20047;-64
2023/10/26 06:03:51;;;;;;;1999.90;999.90;;;;;;;15.10;81.27;95602.00;5134274;27;20130;-64
2023/10/26 06:06:18;;;;;;;1999.90;999.90;;;;;;;15.12;80.85;95601.91;5134119;27;20089;-63
2023/10/26 06:08:46;;;;;;;1999.90;999.90;;;;;;;15.10;80.49;95596.75;5134465;27;20054;-62
2023/10/26 06:11:13;;;;;;;1999.90;999.90;;;;;;;15.07;80.33;95602.22;5134071;27;20049;-63
2023/10/26 06:13:40;;;;;;;1999.90;999.90;;;;;;;15.06;80.58;95612.88;5134154;27;20043;-63
2023/10/26 06:16:12;;;;;;;1999.90;999.90;;;;;;;15.06;80.75;95604.97;5134134;27;20047;-61
2023/10/26 06:18:39;;;;;;;1999.90;999.90;;;;;;;15.08;81.03;95608.34;5134091;27;20078;-62
2023/10/26 06:21:07;;;;;;;1999.90;999.90;;;;;;;15.07;80.90;95614.53;5134026;27;20500;-62
2023/10/26 06:23:35;;;;;;;1999.90;999.90;;;;;;;15.11;81.11;95621.28;5134220;27;20457;-63
2023/10/26 06:26:03;;;;;;;1999.90;999.90;;;;;;;15.19;81.59;95621.56;5133792;27;20051;-64
2023/10/26 06:28:30;;;;;;;1999.90;999.90;;;;;;;15.28;81.83;95615.66;5133893;27;20514;-64
2023/10/26 06:31:08;;;;;;;1999.90;999.90;;;;;;;15.25;81.68;95615.03;5133783;28;20039;-63
2023/10/26 06:33:36;;;;;;;1999.90;999.90;;;;;;;15.21;81.86;95610.94;5133681;28;20134;-62
2023/10/26 06:36:04;;;;;;;1999.90;999.90;;;;;;;15.17;82.38;95618.19;5134160;27;20047;-63
2023/10/26 06:38:31;;;;;;;1999.90;999.90;;;;;;;15.15;82.54;95620.94;5134005;27;20047;-63
2023/10/26 06:40:58;;;;;;;1999.90;999.90;;;;;;;15.19;82.61;95626.84;5133601;28;20420;-64
2023/10/26 06:43:25;;;;;;;1999.90;999.90;;;;;;;15.24;82.65;95624.75;5133986;28;20130;-64
2023/10/26 06:45:52;;;;;;;1999.90;999.90;;;;;;;15.33;82.56;95631.13;5133617;27;20083;-64
2023/10/26 06:48:20;;;;;;;1999.90;999.90;;;;;;;15.47;82.29;95645.94;5133998;27;20069;-62
2023/10/26 06:50:49;;;;;;;1999.90;999.90;;;;;;;15.62;82.56;95638.72;5133865;28;20050;-64
2023/10/26 06:53:16;;;;;;;1999.90;999.90;;;;;;;15.83;82.86;95638.09;5133782;27;20050;-62
2023/10/26 06:55:44;;;;;;;1999.90;999.90;;;;;;;16.06;82.92;95629.47;5133807;27;20047;-63
2023/10/26 06:58:11;;;;;;;1999.90;999.90;;;;;;;16.28;82.37;95623.41;5133546;28;20054;-63
2023/10/26 07:00:38;;;;;;;1999.90;999.90;;;;;;;16.94;80.43;95616.63;5133688;27;20047;-62
2023/10/26 07:03:05;;;;;;;1999.90;999.90;;;;;;;17.91;75.52;95607.19;5133576;28;20150;-64
2023/10/26 07:05:34;;;;;;;1999.90;999.90;;;;;;;18.79;68.83;95611.41;5133352;27;20494;-64
2023/10/26 07:08:03;;;;;;;1999.90;999.90;;;;;;;19.93;64.71;95620.06;5133750;27;20050;-62
2023/10/26 07:10:31;;;;;;;1999.90;999.90;;;;;;;21.63;58.74;95629.28;5137618;27;20150;-62
2023/10/26 07:12:58;;;;;;;1999.90;999.90;;;;;;;23.37;52.70;95642.28;5137305;27;20412;-63
2023/10/26 07:15:25;;;;;;;1999.90;999.90;;;;;;;24.06;50.09;95644.81;5137379;27;20100;-64
2023/10/26 07:17:53;;;;;;;1999.90;999.90;;;;;;;24.25;48.33;95644.69;5137274;27;20043;-64
2023/10/26 07:20:20;;;;;;;1999.90;999.90;;;;;;;24.39;47.99;95636.00;5137252;27;20047;-63
2023/10/26 07:22:48;;;;;;;1999.90;999.90;;;;;;;24.57;47.24;95643.88;5137434;27;20039;-64
2023/10/26 07:25:16;;;;;;;1999.90;999.90;;;;;;;24.59;46.99;95647.19;5137139;27;20551;-63
2023/10/26 07:27:43;;;;;;;1999.90;999.90;;;;;;;24.52;47.12;95651.53;5136988;27;20462;-65
2023/10/26 07:30:12;;;;;;;80.55;55.60;;;;;;;25.15;45.82;95647.44;5137294;27;20058;-64
2023/10/26 07:32:39;;;;;;;70.10;54.13;;;;;;;26.27;43.25;95650.09;5137191;27;20047;-64
2023/10/26 07:35:07;;;;;;;60.70;48.45;;;;;;;26.79;41.82;95659.19;5136963;27;20054;-64
2023/10/26 07:37:34;;;;;;;69.88;51.70;;;;;;;26.66;41.85;95661.69;5137155;27;20074;-63
2023/10/26 07:40:01;;;;;;;64.53;50.80;;;;;;;26.02;42.94;95643.03;5136893;27;20055;-63
2023/10/26 07:42:29;;;;;;;64.70;45.42;;;;;;;25.41;44.45;95627.63;5136954;27;20103;-64
2023/10/26 07:44:56;;;;;;;59.45;42.00;;;;;;;24.84;45.19;95614.25;5136737;27;20126;-64
2023/10/26 07:47:24;;;;;;;68.03;42.85;;;;;;;24.33;46.00;95617.97;5136721;27;20047;-63
2023/10/26 07:49:52;;;;;;;65.40;41.95;;;;;;;23.89;47.20;95617.25;5136753;27;20138;-64
2023/10/26 07:52:19;;;;;;;67.38;43.47;;;;;;;23.38;47.53;95617.31;5136760;27;20051;-64
2023/10/26 07:54:46;;;;;;;64.90;44.58;;;;;;;22.94;50.08;95630.56;5136600;27;20054;-64
2023/10/26 07:57:13;;;;;;;60.55;42.67;;;;;;;22.64;50.98;95635.41;5136543;27;20091;-65
2023/10/26 07:59:42;;;;;;;1999.90;999.90;;;;;;;22.33;51.73;95639.28;5136550;27;20070;-63
2023/10/26 08:02:09;;;;;;;1999.90;999.90;;;;;;;22.14;52.28;95634.13;5136497;27;20047;-65
2023/10/26 08:04:36;;;;;;;1999.90;999.90;;;;;;;21.98;52.94;95635.66;5136487;27;20096;-64
2023/10/26 08:07:03;;;;;;;1999.90;999.90;;;;;;;21.77;53.58;95630.63;5136366;27;20053;-63
2023/10/26 08:09:32;;;;;;;1999.90;999.90;;;;;;;21.55;54.04;95616.75;5136218;27;20484;-64
2023/10/26 08:11:59;;;;;;;1999.90;999.90;;;;;;;21.41;54.84;95608.28;5136116;27;20477;-64
2023/10/26 08:14:27;;;;;;;1999.90;999.90;;;;;;;21.30;55.41;95611.13;5136506;27;20489;-65
2023/10/26 08:16:56;;;;;;;1999.90;999.90;;;;;;;21.20;55.97;95612.00;5136409;27;20373;-64
2023/10/26 08:19:24;;;;;;;1999.90;999.90;;;;;;;21.13;56.04;95610.94;5135796;27;20079;-63
2023/10/26 08:21:51;;;;;;;1999.90;999.90;;;;;;;21.11;56.44;95607.59;5135367;27;20051;-64
2023/10/26 08:24:18;;;;;;;1999.90;999.90;;;;;;;21.06;55.96;95602.72;5136161;27;20374;-65
2023/10/26 08:26:47;;;;;;;1999.90;999.90;;;;;;;21.10;55.83;95597.09;5135873;27;20054;-63
2023/10/26 08:29:14;;;;;;;1999.90;999.90;;;;;;;21.14;55.45;95593.16;5135974;27;20126;-63
2023/10/26 08:31:41;;;;;;;1999.90;999.90;;;;;;;21.22;55.67;95590.59;5136083;27;20043;-63
2023/10/26 08:34:10;;;;;;;1999.90;999.90;;;;;;;21.30;55.42;95598.69;5135920;27;20087;-62
2023/10/26 08:36:37;;;;;;;1999.90;999.90;;;;;;;21.40;54.81;95592.47;5135732;27;20545;-63
2023/10/26 08:39:07;;;;;;;1999.90;999.90;;;;;;;21.40;54.21;95592.47;5135660;27;20054;-64
2023/10/26 08:41:34;;;;;;;1999.90;999.90;;;;;;;21.43;54.88;95590.34;5135722;27;20047;-62
2023/10/26 08:44:02;;;;;;;1999.90;999.90;;;;;;;21.57;54.94;95596.13;5135681;27;20560;-64
2023/10/26 08:46:30;;;;;;;1999.90;999.90;;;;;;;21.86;55.15;95600.44;5135426;27;20408;-64
2023/10/26 08:48:59;;;;;;;1999.90;999.90;;;;;;;22.17;53.92;95609.84;5135715;27;20048;-62
2023/10/26 08:51:28;;;;;;;1999.90;999.90;;;;;;;22.26;54.83;95603.63;5135624;27;20047;-64
2023/10/26 08:53:57;;;;;;;1999.90;999.90;;;;;;;22.09;52.75;95607.97;5135452;27;20049;-63
2023/10/26 08:56:25;;;;;;;1999.90;999.90;;;;;;;21.93;53.61;95616.63;5135383;27;20043;-63
2023/10/26 08:58:57;;;;;;;1999.90;999.90;;;;;;;21.67;54.27;95618.19;5135460;27;20047;-64
2023/10/26 09:01:25;;;;;;;1999.90;999.90;;;;;;;21.54;54.76;95618.56;5135280;27;20043;-64
2023/10/26 09:03:53;;;;;;;1999.90;999.90;;;;;;;21.47;54.48;95617.50;5135257;27;20046;-63
2023/10/26 09:06:20;;;;;;;1999.90;999.90;;;;;;;21.46;54.83;95627.28;5135044;27;20051;-63
2023/10/26 09:09:00;;;;;;;1999.90;999.90;;;;;;;21.38;55.38;95619.22;5135217;27;20053;-65
2023/10/26 09:11:27;;;;;;;1999.90;999.90;;;;;;;21.45;55.63;95616.78;5135355;27;20047;-65
2023/10/26 09:13:54;;;;;;;1999.90;999.90;;;;;;;21.62;55.54;95620.47;5135043;27;20126;-65
2023/10/26 09:16:37;;;;;;;1999.90;999.90;;;;;;;21.82;55.02;95620.34;5135030;27;20484;-64
2023/10/26 09:19:04;;;;;;;1999.90;999.90;;;;;;;22.04;53.69;95623.56;5134906;27;20130;-62
2023/10/26 09:21:48;;;;;;;1999.90;999.90;;;;;;;22.24;53.94;95615.41;5135245;27;20500;-64
2023/10/26 09:24:27;;;;;;;1999.90;999.90;;;;;;;22.44;52.58;95611.56;5134822;27;20044;-63
2023/10/26 09:26:54;;;;;;;1516.60;764.35;;;;;;;22.56;51.90;95611.31;5135006;27;20051;-65
2023/10/26 09:29:22;;;;;;;61.03;52.05;;;;;;;22.67;52.05;95613.75;5134750;27;20405;-63
2023/10/26 09:31:53;;;;;;;68.28;48.42;;;;;;;22.78;51.13;95609.97;5134530;27;20047;-64
2023/10/26 09:34:26;;;;;;;65.88;46.70;;;;;;;22.82;51.31;95605.19;5134440;27;20062;-63
2023/10/26 09:37:04;;;;;;;61.97;50.08;;;;;;;22.83;50.72;95605.03;5134583;27;20047;-65
2023/10/26 09:39:34;;;;;;;65.88;45.97;;;;;;;22.82;50.90;95600.66;5134568;27;20055;-65
2023/10/26 09:42:01;;;;;;;75.72;44.25;;;;;;;22.79;51.33;95592.16;5134714;27;20075;-64
2023/10/26 09:44:29;;;;;;;68.97;46.53;;;;;;;22.82;50.54;95586.53;5134535;27;20442;-62
2023/10/26 09:46:56;;;;;;;66.38;46.33;;;;;;;22.92;51.45;95583.72;5134475;27;20055;-64
2023/10/26 09:49:24;;;;;;;64.70;46.63;;;;;;;22.98;49.67;95583.09;5134310;27;20051;-64
2023/10/26 09:51:52;;;;;;;61.33;43.63;;;;;;;23.04;48.86;95571.81;5134352;27;20103;-64
2023/10/26 09:54:21;;;;;;;74.43;43.47;;;;;;;23.10;49.18;95571.16;5134421;27;20519;-64
2023/10/26 09:56:53;;;;;;;65.63;42.75;;;;;;;23.20;48.96;95570.19;5134315;27;20138;-63
2023/10/26 09:59:21;;;;;;;65.43;44.15;;;;;;;23.20;49.04;95568.34;5134404;27;20050;-63
2023/10/26 10:01:48;;;;;;;63.63;43.80;;;;;;;23.24;48.71;95579.56;5134311;27;20043;-63
2023/10/26 10:04:18;;;;;;;62.58;39.83;;;;;;;23.34;48.82;95579.41;5134231;27;20404;-64
2023/10/26 10:06:48;;;;;;;59.83;45.00;;;;;;;23.53;48.17;95574.78;5134369;27;20047;-64
2023/10/26 10:09:18;;;;;;;57.28;45.00;;;;;;;23.87;47.85;95559.69;5134219;27;20039;-65
2023/10/26 10:11:45;;;;;;;65.47;46.53;;;;;;;24.11;47.33;95558.88;5134184;27;20138;-65
2023/10/26 10:14:45;;;;;;;61.58;45.30;;;;;;;24.22;45.39;95555.88;5134051;27;20039;-65
2023/10/26 10:17:14;;;;;;;59.70;45.70;;;;;;;24.29;45.32;95547.19;5134108;27;20043;-65
2023/10/26 10:19:43;;;;;;;64.38;43.47;;;;;;;24.40;45.33;95533.47;5134243;28;20457;-64
2023/10/26 10:22:43;;;;;;;59.40;45.00;;;;;;;24.42;43.81;95535.97;5133988;27;20488;-63
2023/10/26 10:25:11;;;;;;;48.28;42.92;;;;;;;24.46;44.48;95537.28;5134044;27;20054;-63
2023/10/26 10:27:39;;;;;;;62.40;40.78;;;;;;;24.50;44.11;95543.16;5133943;28;20076;-63
2023/10/26 10:30:10;;;;;;;50.58;43.75;;;;;;;24.52;43.10;95543.78;5133990;28;20077;-63
2023/10/26 10:32:51;;;;;;;;;;;;;;;24.50;42.95;95541.28;5134585;27;20047;-65
2023/10/26 10:35:39;;;;;;;46.40;40.70;;;;;;;24.50;42.67;95535.94;5133897;28;19920;-65
2023/10/26 10:38:20;;;;;;;52.60;41.35;;;;;;;24.56;43.03;95543.28;5133917;28;20043;-63
2023/10/26 10:41:09;;;;;;;53.33;41.53;;;;;;;24.54;41.99;95531.09;5133775;28;20092;-64
2023/10/26 10:43:40;;;;;;;60.80;45.97;;;;;;;24.56;42.75;95527.25;5134986;27;20100;-65
2023/10/26 10:46:13;;;;;;;;;;;;;;;24.56;43.14;95516.56;5138436;27;20047;-64
2023/10/26 10:49:04;;;;;;;58.97;43.08;;;;;;;24.58;42.76;95513.72;5137963;27;20399;-65
2023/10/26 10:51:32;;;;;;;56.72;43.63;;;;;;;24.45;42.95;95504.41;5132636;27;20097;-64
2023/10/26 10:53:59;;;;;;;59.75;41.20;;;;;;;24.42;43.31;95494.06;5137897;27;20488;-65
2023/10/26 10:56:26;;;;;;;59.78;44.00;;;;;;;24.39;43.63;95496.25;5137686;27;20083;-64
2023/10/26 10:58:56;;;;;;;59.40;44.22;;;;;;;24.13;43.36;95495.44;5137567;27;20489;-63
2023/10/26 11:01:23;;;;;;;54.20;41.40;;;;;;;24.08;44.09;95492.44;5137702;27;20054;-63
2023/10/26 11:03:51;;;;;;;52.67;43.78;;;;;;;23.99;44.22;95496.94;5137589;27;20081;-64
2023/10/26 11:06:19;;;;;;;55.03;42.22;;;;;;;23.92;44.60;95502.13;5137527;27;20055;-64